Saturday, October 25, 2014
02:51 UTC
  |  Log In   |  Register Free
Airport Search:

Seattle-Tacoma International Airport
(KSEA)

FAA data valid effective September 18, 2014 - November 13, 2014 (unless otherwise noted).

 
 
 
 
 
 
 
 
 
 
 
 
 
 

Current Aviation Weather for Seattle-Tacoma International Airport (KSEA)

The most recent METAR observation for KSEA was updated at: 0214
METAR Summary (Translated METAR)
KSEA
250153Z 01008KT 10SM OVC090 12/08 A2987 RMK AO2 SLP122 T01220078
KRNT
250153Z 33007KT 10SM OVC100 13/09 A2986 RMK AO2 SLP118 T01330094
(4.6 nm NE from KSEA)
KBFI
250153Z 00000KT 10SM OVC100 14/08 A2987 RMK AO2 SLP115 T01390083
(4.9 nm NE from KSEA)
TAF Summary (Translated TAF)
KSEA
242120Z 2421/2524 36008KT P6SM FEW100 OVC180 FM250400 05005KT P6SM -RA OVC080 FM250700 05009KT P6SM -RA OVC040 FM251300 07008KT 4SM -RA BR OVC013 FM251800 16008KT P6SM -RA SCT020 OVC035
KBFI
(4.9 nm NE from KSEA)
241725Z 2418/2518 00000KT P6SM SCT130 BKN230 FM242200 36004KT P6SM SCT130 OVC230 FM250400 05004KT P6SM -RA OVC080 FM250700 05006KT P6SM -RA OVC040 FM251300 07006KT 4SM -RA BR OVC016
  Airport Weather Conditions for KSEA

 Current Weather at SEA
54° F
Overcast
North winds at 9.2 mph
SEA NOAA Radar

Pressure: 29.87 in
Humidity: 75%
Wind: North at 9.2 MPH (8 KT)
Dew Point: 46.0°F
Visibility: 10.00 mi


Airport Weather Forecast for KSEA

Translated METAR and TAF for KSEA
Translated METAR for KSEA (0246 UTC 25 October 2014)
found at http://aviationweather.gov/adds/metars/
 
METAR text: KSEA 250153Z 01008KT 10SM OVC090 12/08 A2987 RMK AO2 SLP122 T01220078
Conditions at: KSEA (SEATTLE/METRO , WA, US) observed 0153 UTC 25 October 2014
Temperature: 12.2°C (54°F)
Dewpoint: 7.8°C (46°F) [RH = 74%]
Pressure (altimeter): 29.87 inches Hg (1011.6 mb)
[Sea-level pressure: 1012.2 mb]
Winds: from the N (10 degrees) at 9 MPH (8 knots; 4.2 m/s)
Visibility: 10 or more miles (16+ km)
Ceiling: 9000 feet AGL
Clouds: overcast cloud deck at 9000 feet AGL
Weather: no significant weather observed at this time
Translated TAF for KSEA
Forecast for: KSEA (SEATTLE/METRO , WA, US)
TAF Text: KSEA 242330Z 2500/2606 01010KT P6SM FEW100 OVC150
Forecast period: 0000 to 0400 UTC 25 October 2014
Forecast type: FROM: standard forecast or significant change
Winds: from the N (10 degrees) at 12 MPH (10 knots; 5.2 m/s)
Visibility: 6 or more miles (10+ km)
Ceiling: 15000 feet AGL
Clouds: few clouds at 10000 feet AGL
overcast cloud deck at 15000 feet AGL
Weather: no significant weather forecast for this period
TAF Text: FM250400 04010KT P6SM -RA OVC080
Forecast period: 0400 to 0700 UTC 25 October 2014
Forecast type: FROM: standard forecast or significant change
Winds: from the NE (40 degrees) at 12 MPH (10 knots; 5.2 m/s)
Visibility: 6 or more miles (10+ km)
Ceiling: 8000 feet AGL
Clouds: overcast cloud deck at 8000 feet AGL
Weather: -RA  (light rain)
TAF Text: FM250700 05009KT P6SM -RA OVC040
Forecast period: 0700 to 1300 UTC 25 October 2014
Forecast type: FROM: standard forecast or significant change
Winds: from the NE (50 degrees) at 10 MPH (9 knots; 4.7 m/s)
Visibility: 6 or more miles (10+ km)
Ceiling: 4000 feet AGL
Clouds: overcast cloud deck at 4000 feet AGL
Weather: -RA  (light rain)
TAF Text: FM251300 07008KT 4SM -RA BR OVC013
Forecast period: 1300 to 1800 UTC 25 October 2014
Forecast type: FROM: standard forecast or significant change
Winds: from the ENE (70 degrees) at 9 MPH (8 knots; 4.2 m/s)
Visibility: 4 miles (6 km)
Ceiling: 1300 feet AGL
Clouds: overcast cloud deck at 1300 feet AGL
Weather: -RA BR  (light rain, mist)
TAF Text: FM251800 16008KT P6SM -RA BKN020 OVC035
Forecast period: 1800 UTC 25 October 2014 to 0200 UTC 26 October 2014
Forecast type: FROM: standard forecast or significant change
Winds: from the SSE (160 degrees) at 9 MPH (8 knots; 4.2 m/s)
Visibility: 6 or more miles (10+ km)
Ceiling: 2000 feet AGL
Clouds: broken clouds at 2000 feet AGL
overcast cloud deck at 3500 feet AGL
Weather: -RA  (light rain)
TAF Text: FM260200 20014G22KT P6SM -RA BKN020 OVC035
Forecast period: 0200 to 0600 UTC 26 October 2014
Forecast type: FROM: standard forecast or significant change
Winds: from the SSW (200 degrees) at 16 MPH (14 knots; 7.3 m/s)
gusting to 25 MPH (22 knots; 11.4 m/s)
Visibility: 6 or more miles (10+ km)
Ceiling: 2000 feet AGL
Clouds: broken clouds at 2000 feet AGL
overcast cloud deck at 3500 feet AGL
Weather: -RA  (light rain)

Find All Airport Services Find A Hotel Find A Rental Car Find A Golf Course Find A Restaurant $100 Hamburger



FBO's on the Field
FBO Company Facility Photos Services Transportation Aviation Fuel Prices: Prices include tax
Catering Weather Repair Courtesy Rental Type 100LL JetA JetA+ MOGAS 8087
 
Aircraft Service Intl.

This FBO has not yet been rated
FS:Avfuel
Last Updated: Oct-10
Login to update fuel prices
SS:
Contact Aircraft Service Intl.More FBO Information
 
Add another FBO Facility Photos Catering Weather Repair Courtesy Rental Type 100LL JetA JetA+ MOGAS 8087
Services Transportation Aviation Fuel Prices: Prices include tax


model-print
model-print
model-print
model-print